sensor_id;sensor_type;location;lat;lon;timestamp;P1;durP1;ratioP1;P2;durP2;ratioP2
23588;SDS011;11972;48.078;11.876;2023-05-10T00:01:06;0.60;;;0.60;;
23588;SDS011;11972;48.078;11.876;2023-05-10T00:05:07;0.57;;;0.57;;
23588;SDS011;11972;48.078;11.876;2023-05-10T00:09:08;0.65;;;0.65;;
23588;SDS011;11972;48.078;11.876;2023-05-10T00:13:09;2.75;;;0.60;;
23588;SDS011;11972;48.078;11.876;2023-05-10T00:17:10;2.22;;;0.60;;
23588;SDS011;11972;48.078;11.876;2023-05-10T00:21:10;1.33;;;0.50;;
23588;SDS011;11972;48.078;11.876;2023-05-10T00:25:10;2.10;;;0.80;;
23588;SDS011;11972;48.078;11.876;2023-05-10T00:29:11;3.15;;;0.93;;
23588;SDS011;11972;48.078;11.876;2023-05-10T00:33:11;4.17;;;0.90;;
23588;SDS011;11972;48.078;11.876;2023-05-10T00:37:12;1.00;;;0.90;;
23588;SDS011;11972;48.078;11.876;2023-05-10T00:41:12;1.93;;;0.90;;
23588;SDS011;11972;48.078;11.876;2023-05-10T00:45:13;0.95;;;0.82;;
23588;SDS011;11972;48.078;11.876;2023-05-10T00:49:13;1.73;;;1.17;;
23588;SDS011;11972;48.078;11.876;2023-05-10T00:53:14;2.20;;;0.73;;
23588;SDS011;11972;48.078;11.876;2023-05-10T00:57:15;1.48;;;0.63;;
23588;SDS011;11972;48.078;11.876;2023-05-10T01:01:15;1.05;;;0.57;;
23588;SDS011;11972;48.078;11.876;2023-05-10T01:05:15;3.47;;;0.93;;
23588;SDS011;11972;48.078;11.876;2023-05-10T01:09:16;3.05;;;0.80;;
23588;SDS011;11972;48.078;11.876;2023-05-10T01:13:18;1.13;;;1.00;;
23588;SDS011;11972;48.078;11.876;2023-05-10T01:17:31;1.60;;;0.70;;
23588;SDS011;11972;48.078;11.876;2023-05-10T01:21:33;1.88;;;0.93;;
23588;SDS011;11972;48.078;11.876;2023-05-10T01:34:35;0.68;;;0.68;;
23588;SDS011;11972;48.078;11.876;2023-05-10T01:42:46;1.42;;;0.60;;
23588;SDS011;11972;48.078;11.876;2023-05-10T01:46:53;0.73;;;0.60;;
23588;SDS011;11972;48.078;11.876;2023-05-10T01:51:01;1.23;;;0.60;;
23588;SDS011;11972;48.078;11.876;2023-05-10T01:55:04;1.48;;;0.63;;
23588;SDS011;11972;48.078;11.876;2023-05-10T01:59:08;2.05;;;0.50;;
23588;SDS011;11972;48.078;11.876;2023-05-10T02:03:13;0.40;;;0.40;;
23588;SDS011;11972;48.078;11.876;2023-05-10T02:07:16;2.70;;;0.50;;
23588;SDS011;11972;48.078;11.876;2023-05-10T02:11:17;1.52;;;0.50;;
23588;SDS011;11972;48.078;11.876;2023-05-10T02:15:22;0.70;;;0.50;;
23588;SDS011;11972;48.078;11.876;2023-05-10T02:19:25;0.60;;;0.50;;
23588;SDS011;11972;48.078;11.876;2023-05-10T02:23:27;0.80;;;0.60;;
23588;SDS011;11972;48.078;11.876;2023-05-10T02:27:28;0.85;;;0.50;;
23588;SDS011;11972;48.078;11.876;2023-05-10T02:31:31;0.70;;;0.70;;
23588;SDS011;11972;48.078;11.876;2023-05-10T02:35:32;1.13;;;0.60;;
23588;SDS011;11972;48.078;11.876;2023-05-10T02:39:34;0.40;;;0.40;;
23588;SDS011;11972;48.078;11.876;2023-05-10T02:43:35;1.10;;;0.50;;
23588;SDS011;11972;48.078;11.876;2023-05-10T02:47:39;0.47;;;0.40;;
23588;SDS011;11972;48.078;11.876;2023-05-10T02:51:41;1.33;;;0.60;;
23588;SDS011;11972;48.078;11.876;2023-05-10T02:55:45;0.50;;;0.40;;
23588;SDS011;11972;48.078;11.876;2023-05-10T02:59:50;1.60;;;0.68;;
23588;SDS011;11972;48.078;11.876;2023-05-10T03:03:51;0.50;;;0.50;;
23588;SDS011;11972;48.078;11.876;2023-05-10T03:07:51;1.13;;;0.50;;
23588;SDS011;11972;48.078;11.876;2023-05-10T03:16:24;0.70;;;0.40;;
23588;SDS011;11972;48.078;11.876;2023-05-10T03:20:29;0.35;;;0.35;;
23588;SDS011;11972;48.078;11.876;2023-05-10T03:24:36;0.57;;;0.40;;
23588;SDS011;11972;48.078;11.876;2023-05-10T03:28:39;0.50;;;0.50;;
23588;SDS011;11972;48.078;11.876;2023-05-10T03:32:40;0.35;;;0.35;;
23588;SDS011;11972;48.078;11.876;2023-05-10T03:36:40;0.43;;;0.32;;
23588;SDS011;11972;48.078;11.876;2023-05-10T03:40:41;0.40;;;0.40;;
23588;SDS011;11972;48.078;11.876;2023-05-10T03:44:41;0.32;;;0.20;;
23588;SDS011;11972;48.078;11.876;2023-05-10T03:48:41;0.20;;;0.20;;
23588;SDS011;11972;48.078;11.876;2023-05-10T03:52:42;0.30;;;0.30;;
23588;SDS011;11972;48.078;11.876;2023-05-10T03:56:42;0.65;;;0.30;;
23588;SDS011;11972;48.078;11.876;2023-05-10T04:00:42;1.08;;;0.40;;
23588;SDS011;11972;48.078;11.876;2023-05-10T04:04:46;0.50;;;0.50;;
23588;SDS011;11972;48.078;11.876;2023-05-10T04:08:46;1.25;;;0.47;;
23588;SDS011;11972;48.078;11.876;2023-05-10T04:12:46;0.50;;;0.40;;
23588;SDS011;11972;48.078;11.876;2023-05-10T04:16:47;0.30;;;0.30;;
23588;SDS011;11972;48.078;11.876;2023-05-10T04:20:47;0.40;;;0.40;;
23588;SDS011;11972;48.078;11.876;2023-05-10T04:24:47;0.73;;;0.30;;
23588;SDS011;11972;48.078;11.876;2023-05-10T04:28:48;0.30;;;0.30;;
23588;SDS011;11972;48.078;11.876;2023-05-10T04:32:48;0.90;;;0.40;;
23588;SDS011;11972;48.078;11.876;2023-05-10T04:36:48;0.40;;;0.20;;
23588;SDS011;11972;48.078;11.876;2023-05-10T04:40:49;0.10;;;0.10;;
23588;SDS011;11972;48.078;11.876;2023-05-10T04:44:49;1.67;;;0.40;;
23588;SDS011;11972;48.078;11.876;2023-05-10T04:48:49;1.33;;;0.30;;
23588;SDS011;11972;48.078;11.876;2023-05-10T04:52:49;0.20;;;0.20;;
23588;SDS011;11972;48.078;11.876;2023-05-10T04:56:50;0.20;;;0.20;;
23588;SDS011;11972;48.078;11.876;2023-05-10T05:00:50;0.65;;;0.30;;
23588;SDS011;11972;48.078;11.876;2023-05-10T05:04:51;0.10;;;0.10;;
23588;SDS011;11972;48.078;11.876;2023-05-10T05:08:51;0.20;;;0.20;;
23588;SDS011;11972;48.078;11.876;2023-05-10T05:12:51;0.10;;;0.10;;
23588;SDS011;11972;48.078;11.876;2023-05-10T05:16:52;0.17;;;0.10;;
23588;SDS011;11972;48.078;11.876;2023-05-10T05:20:52;1.05;;;0.40;;
23588;SDS011;11972;48.078;11.876;2023-05-10T05:24:53;0.40;;;0.20;;
23588;SDS011;11972;48.078;11.876;2023-05-10T05:28:54;0.73;;;0.10;;
23588;SDS011;11972;48.078;11.876;2023-05-10T05:32:54;0.93;;;0.10;;
23588;SDS011;11972;48.078;11.876;2023-05-10T05:36:55;0.55;;;0.10;;
23588;SDS011;11972;48.078;11.876;2023-05-10T05:40:55;0.80;;;0.10;;
23588;SDS011;11972;48.078;11.876;2023-05-10T05:44:55;2.15;;;0.20;;
23588;SDS011;11972;48.078;11.876;2023-05-10T05:48:56;1.43;;;0.20;;
23588;SDS011;11972;48.078;11.876;2023-05-10T05:52:56;1.73;;;0.30;;
23588;SDS011;11972;48.078;11.876;2023-05-10T05:56:58;4.53;;;0.50;;
23588;SDS011;11972;48.078;11.876;2023-05-10T06:00:58;2.08;;;0.50;;
23588;SDS011;11972;48.078;11.876;2023-05-10T06:04:59;3.95;;;0.63;;
23588;SDS011;11972;48.078;11.876;2023-05-10T06:08:59;2.05;;;0.50;;
23588;SDS011;11972;48.078;11.876;2023-05-10T06:12:59;3.40;;;0.60;;
23588;SDS011;11972;48.078;11.876;2023-05-10T06:17:00;4.50;;;0.52;;
23588;SDS011;11972;48.078;11.876;2023-05-10T06:21:00;2.35;;;0.70;;
23588;SDS011;11972;48.078;11.876;2023-05-10T06:25:00;0.77;;;0.70;;
23588;SDS011;11972;48.078;11.876;2023-05-10T06:29:02;1.55;;;0.70;;
23588;SDS011;11972;48.078;11.876;2023-05-10T06:33:03;5.47;;;0.82;;
23588;SDS011;11972;48.078;11.876;2023-05-10T06:37:03;4.75;;;1.00;;
23588;SDS011;11972;48.078;11.876;2023-05-10T06:41:04;2.80;;;0.93;;
23588;SDS011;11972;48.078;11.876;2023-05-10T06:45:04;1.80;;;1.20;;
23588;SDS011;11972;48.078;11.876;2023-05-10T06:49:05;1.58;;;1.40;;
23588;SDS011;11972;48.078;11.876;2023-05-10T06:53:05;1.70;;;1.33;;
23588;SDS011;11972;48.078;11.876;2023-05-10T06:57:06;2.72;;;1.70;;
23588;SDS011;11972;48.078;11.876;2023-05-10T07:01:06;2.15;;;1.95;;
23588;SDS011;11972;48.078;11.876;2023-05-10T07:05:07;2.28;;;1.83;;
23588;SDS011;11972;48.078;11.876;2023-05-10T07:09:08;2.40;;;2.20;;
23588;SDS011;11972;48.078;11.876;2023-05-10T07:13:08;3.95;;;2.15;;
23588;SDS011;11972;48.078;11.876;2023-05-10T07:17:10;2.00;;;1.90;;
23588;SDS011;11972;48.078;11.876;2023-05-10T07:21:11;1.70;;;1.60;;
23588;SDS011;11972;48.078;11.876;2023-05-10T07:25:11;2.75;;;1.40;;
23588;SDS011;11972;48.078;11.876;2023-05-10T07:29:11;2.65;;;1.48;;
23588;SDS011;11972;48.078;11.876;2023-05-10T07:33:12;1.48;;;1.30;;
23588;SDS011;11972;48.078;11.876;2023-05-10T07:37:13;1.35;;;0.90;;
23588;SDS011;11972;48.078;11.876;2023-05-10T07:41:14;2.38;;;0.90;;
23588;SDS011;11972;48.078;11.876;2023-05-10T07:45:14;0.80;;;0.77;;
23588;SDS011;11972;48.078;11.876;2023-05-10T07:49:14;0.60;;;0.60;;
23588;SDS011;11972;48.078;11.876;2023-05-10T07:53:15;2.63;;;0.80;;
23588;SDS011;11972;48.078;11.876;2023-05-10T07:57:15;2.72;;;0.70;;
23588;SDS011;11972;48.078;11.876;2023-05-10T08:01:17;0.85;;;0.70;;
23588;SDS011;11972;48.078;11.876;2023-05-10T08:05:17;1.08;;;0.80;;
23588;SDS011;11972;48.078;11.876;2023-05-10T08:09:18;0.73;;;0.52;;
23588;SDS011;11972;48.078;11.876;2023-05-10T08:13:23;0.60;;;0.50;;
23588;SDS011;11972;48.078;11.876;2023-05-10T08:17:23;2.55;;;0.50;;
23588;SDS011;11972;48.078;11.876;2023-05-10T08:21:24;1.77;;;0.60;;
23588;SDS011;11972;48.078;11.876;2023-05-10T08:25:24;1.20;;;0.52;;
23588;SDS011;11972;48.078;11.876;2023-05-10T08:29:25;1.65;;;0.60;;
23588;SDS011;11972;48.078;11.876;2023-05-10T08:33:26;4.60;;;1.42;;
23588;SDS011;11972;48.078;11.876;2023-05-10T08:37:26;1.55;;;1.02;;
23588;SDS011;11972;48.078;11.876;2023-05-10T08:41:33;1.45;;;1.30;;
23588;SDS011;11972;48.078;11.876;2023-05-10T08:45:39;1.30;;;0.85;;
23588;SDS011;11972;48.078;11.876;2023-05-10T08:49:40;2.10;;;1.13;;
23588;SDS011;11972;48.078;11.876;2023-05-10T08:53:42;1.02;;;0.93;;
23588;SDS011;11972;48.078;11.876;2023-05-10T08:57:42;1.48;;;0.82;;
23588;SDS011;11972;48.078;11.876;2023-05-10T09:01:43;0.43;;;0.43;;
23588;SDS011;11972;48.078;11.876;2023-05-10T09:05:45;1.27;;;0.60;;
23588;SDS011;11972;48.078;11.876;2023-05-10T09:09:46;0.55;;;0.43;;
23588;SDS011;11972;48.078;11.876;2023-05-10T09:13:48;0.95;;;0.65;;
23588;SDS011;11972;48.078;11.876;2023-05-10T09:17:50;0.50;;;0.30;;
23588;SDS011;11972;48.078;11.876;2023-05-10T09:21:51;0.38;;;0.30;;
23588;SDS011;11972;48.078;11.876;2023-05-10T09:26:06;0.85;;;0.30;;
23588;SDS011;11972;48.078;11.876;2023-05-10T09:30:07;0.38;;;0.30;;
23588;SDS011;11972;48.078;11.876;2023-05-10T09:34:08;0.28;;;0.28;;
23588;SDS011;11972;48.078;11.876;2023-05-10T09:38:08;0.43;;;0.20;;
23588;SDS011;11972;48.078;11.876;2023-05-10T09:42:10;0.88;;;0.30;;
23588;SDS011;11972;48.078;11.876;2023-05-10T09:46:10;0.17;;;0.15;;
23588;SDS011;11972;48.078;11.876;2023-05-10T09:50:11;0.28;;;0.20;;
23588;SDS011;11972;48.078;11.876;2023-05-10T09:54:12;1.67;;;0.30;;
23588;SDS011;11972;48.078;11.876;2023-05-10T09:58:15;0.55;;;0.32;;
23588;SDS011;11972;48.078;11.876;2023-05-10T10:02:16;0.52;;;0.30;;
23588;SDS011;11972;48.078;11.876;2023-05-10T10:06:18;0.25;;;0.20;;
23588;SDS011;11972;48.078;11.876;2023-05-10T10:10:19;0.20;;;0.20;;
23588;SDS011;11972;48.078;11.876;2023-05-10T10:14:19;0.43;;;0.20;;
23588;SDS011;11972;48.078;11.876;2023-05-10T10:18:21;2.55;;;0.40;;
23588;SDS011;11972;48.078;11.876;2023-05-10T10:22:26;1.67;;;0.50;;
23588;SDS011;11972;48.078;11.876;2023-05-10T10:26:27;3.23;;;0.50;;
23588;SDS011;11972;48.078;11.876;2023-05-10T10:30:29;1.52;;;0.52;;
23588;SDS011;11972;48.078;11.876;2023-05-10T10:34:30;0.52;;;0.20;;
23588;SDS011;11972;48.078;11.876;2023-05-10T10:42:47;0.40;;;0.38;;
23588;SDS011;11972;48.078;11.876;2023-05-10T10:51:13;0.85;;;0.30;;
23588;SDS011;11972;48.078;11.876;2023-05-10T10:55:17;0.30;;;0.20;;
23588;SDS011;11972;48.078;11.876;2023-05-10T10:59:26;0.73;;;0.20;;
23588;SDS011;11972;48.078;11.876;2023-05-10T11:03:27;0.93;;;0.20;;
23588;SDS011;11972;48.078;11.876;2023-05-10T11:07:28;0.88;;;0.30;;
23588;SDS011;11972;48.078;11.876;2023-05-10T11:11:29;1.40;;;0.30;;
23588;SDS011;11972;48.078;11.876;2023-05-10T11:15:30;0.40;;;0.30;;
23588;SDS011;11972;48.078;11.876;2023-05-10T11:27:59;1.33;;;0.50;;
23588;SDS011;11972;48.078;11.876;2023-05-10T11:32:04;3.13;;;0.70;;
23588;SDS011;11972;48.078;11.876;2023-05-10T11:36:10;1.40;;;0.50;;
23588;SDS011;11972;48.078;11.876;2023-05-10T11:40:11;0.40;;;0.40;;
23588;SDS011;11972;48.078;11.876;2023-05-10T11:44:12;1.75;;;0.30;;
23588;SDS011;11972;48.078;11.876;2023-05-10T11:48:12;0.77;;;0.50;;
23588;SDS011;11972;48.078;11.876;2023-05-10T11:52:12;0.90;;;0.50;;
23588;SDS011;11972;48.078;11.876;2023-05-10T11:56:13;0.30;;;0.30;;
23588;SDS011;11972;48.078;11.876;2023-05-10T12:00:13;0.87;;;0.63;;
23588;SDS011;11972;48.078;11.876;2023-05-10T12:04:14;2.72;;;0.47;;
23588;SDS011;11972;48.078;11.876;2023-05-10T12:08:15;1.58;;;0.55;;
23588;SDS011;11972;48.078;11.876;2023-05-10T12:12:19;0.70;;;0.30;;
23588;SDS011;11972;48.078;11.876;2023-05-10T12:16:20;1.93;;;0.50;;
23588;SDS011;11972;48.078;11.876;2023-05-10T12:20:21;2.55;;;0.30;;
23588;SDS011;11972;48.078;11.876;2023-05-10T12:24:24;2.25;;;0.40;;
23588;SDS011;11972;48.078;11.876;2023-05-10T12:28:25;2.08;;;0.50;;
23588;SDS011;11972;48.078;11.876;2023-05-10T12:32:44;2.25;;;0.50;;
23588;SDS011;11972;48.078;11.876;2023-05-10T12:36:44;2.60;;;1.40;;
23588;SDS011;11972;48.078;11.876;2023-05-10T12:40:45;22.35;;;1.20;;
23588;SDS011;11972;48.078;11.876;2023-05-10T12:44:45;2.17;;;1.00;;
23588;SDS011;11972;48.078;11.876;2023-05-10T12:48:45;4.55;;;2.03;;
23588;SDS011;11972;48.078;11.876;2023-05-10T12:52:49;7.53;;;2.70;;
23588;SDS011;11972;48.078;11.876;2023-05-10T12:56:49;5.73;;;2.60;;
23588;SDS011;11972;48.078;11.876;2023-05-10T13:00:50;4.73;;;2.80;;
23588;SDS011;11972;48.078;11.876;2023-05-10T13:04:52;4.38;;;3.10;;
23588;SDS011;11972;48.078;11.876;2023-05-10T13:08:54;3.60;;;2.60;;
23588;SDS011;11972;48.078;11.876;2023-05-10T13:12:54;4.10;;;2.22;;
23588;SDS011;11972;48.078;11.876;2023-05-10T13:16:55;3.05;;;1.65;;
23588;SDS011;11972;48.078;11.876;2023-05-10T13:20:56;4.85;;;1.50;;
23588;SDS011;11972;48.078;11.876;2023-05-10T13:24:57;3.95;;;1.38;;
23588;SDS011;11972;48.078;11.876;2023-05-10T13:28:57;1.80;;;1.10;;
23588;SDS011;11972;48.078;11.876;2023-05-10T13:32:57;2.42;;;1.48;;
23588;SDS011;11972;48.078;11.876;2023-05-10T13:36:58;2.83;;;1.80;;
23588;SDS011;11972;48.078;11.876;2023-05-10T13:40:58;2.00;;;1.40;;
23588;SDS011;11972;48.078;11.876;2023-05-10T13:44:59;1.53;;;1.30;;
23588;SDS011;11972;48.078;11.876;2023-05-10T13:49:00;2.55;;;1.25;;
23588;SDS011;11972;48.078;11.876;2023-05-10T13:53:01;3.97;;;0.95;;
23588;SDS011;11972;48.078;11.876;2023-05-10T13:57:02;3.30;;;1.00;;
23588;SDS011;11972;48.078;11.876;2023-05-10T14:01:02;2.65;;;1.50;;
23588;SDS011;11972;48.078;11.876;2023-05-10T14:05:03;1.88;;;1.20;;
23588;SDS011;11972;48.078;11.876;2023-05-10T14:09:03;2.28;;;1.10;;
23588;SDS011;11972;48.078;11.876;2023-05-10T14:13:04;1.15;;;0.80;;
23588;SDS011;11972;48.078;11.876;2023-05-10T14:17:04;3.90;;;1.20;;
23588;SDS011;11972;48.078;11.876;2023-05-10T14:21:05;0.80;;;0.77;;
23588;SDS011;11972;48.078;11.876;2023-05-10T14:25:06;2.20;;;0.90;;
23588;SDS011;11972;48.078;11.876;2023-05-10T14:29:06;2.47;;;1.02;;
23588;SDS011;11972;48.078;11.876;2023-05-10T14:33:07;1.48;;;0.85;;
23588;SDS011;11972;48.078;11.876;2023-05-10T14:37:09;1.80;;;1.20;;
23588;SDS011;11972;48.078;11.876;2023-05-10T14:41:10;1.90;;;1.00;;
23588;SDS011;11972;48.078;11.876;2023-05-10T14:45:14;1.83;;;1.20;;
23588;SDS011;11972;48.078;11.876;2023-05-10T14:49:14;1.77;;;0.73;;
23588;SDS011;11972;48.078;11.876;2023-05-10T14:53:14;2.60;;;0.50;;
23588;SDS011;11972;48.078;11.876;2023-05-10T14:57:15;0.85;;;0.40;;
23588;SDS011;11972;48.078;11.876;2023-05-10T15:01:16;1.30;;;0.50;;
23588;SDS011;11972;48.078;11.876;2023-05-10T15:05:16;0.87;;;0.50;;
23588;SDS011;11972;48.078;11.876;2023-05-10T15:09:17;0.85;;;0.60;;
23588;SDS011;11972;48.078;11.876;2023-05-10T15:13:17;3.67;;;0.60;;
23588;SDS011;11972;48.078;11.876;2023-05-10T15:17:17;3.20;;;0.85;;
23588;SDS011;11972;48.078;11.876;2023-05-10T15:21:18;2.72;;;1.00;;
23588;SDS011;11972;48.078;11.876;2023-05-10T15:25:19;0.90;;;0.80;;
23588;SDS011;11972;48.078;11.876;2023-05-10T15:29:20;6.05;;;0.70;;
23588;SDS011;11972;48.078;11.876;2023-05-10T15:33:20;2.05;;;0.82;;
23588;SDS011;11972;48.078;11.876;2023-05-10T15:37:21;1.10;;;1.00;;
23588;SDS011;11972;48.078;11.876;2023-05-10T15:41:23;0.95;;;0.73;;
23588;SDS011;11972;48.078;11.876;2023-05-10T15:45:24;1.00;;;0.73;;
23588;SDS011;11972;48.078;11.876;2023-05-10T15:49:24;0.95;;;0.50;;
23588;SDS011;11972;48.078;11.876;2023-05-10T15:53:25;2.05;;;0.85;;
23588;SDS011;11972;48.078;11.876;2023-05-10T15:57:25;1.05;;;0.70;;
23588;SDS011;11972;48.078;11.876;2023-05-10T16:01:26;1.88;;;0.70;;
23588;SDS011;11972;48.078;11.876;2023-05-10T16:05:27;0.82;;;0.70;;
23588;SDS011;11972;48.078;11.876;2023-05-10T16:09:31;1.10;;;0.60;;
23588;SDS011;11972;48.078;11.876;2023-05-10T16:13:31;1.55;;;0.80;;
23588;SDS011;11972;48.078;11.876;2023-05-10T16:17:32;2.25;;;0.82;;
23588;SDS011;11972;48.078;11.876;2023-05-10T16:21:32;1.23;;;0.90;;
23588;SDS011;11972;48.078;11.876;2023-05-10T16:25:33;1.02;;;0.95;;
23588;SDS011;11972;48.078;11.876;2023-05-10T16:29:33;1.83;;;0.80;;
23588;SDS011;11972;48.078;11.876;2023-05-10T16:33:33;5.67;;;1.03;;
23588;SDS011;11972;48.078;11.876;2023-05-10T16:37:34;1.20;;;0.80;;
23588;SDS011;11972;48.078;11.876;2023-05-10T16:41:34;1.90;;;1.30;;
23588;SDS011;11972;48.078;11.876;2023-05-10T16:45:35;2.85;;;1.00;;
23588;SDS011;11972;48.078;11.876;2023-05-10T16:49:35;2.03;;;1.00;;
23588;SDS011;11972;48.078;11.876;2023-05-10T16:53:36;1.35;;;1.02;;
23588;SDS011;11972;48.078;11.876;2023-05-10T16:57:36;1.30;;;1.20;;
23588;SDS011;11972;48.078;11.876;2023-05-10T17:01:37;2.38;;;1.30;;
23588;SDS011;11972;48.078;11.876;2023-05-10T17:05:37;2.97;;;1.50;;
23588;SDS011;11972;48.078;11.876;2023-05-10T17:09:38;1.88;;;1.17;;
23588;SDS011;11972;48.078;11.876;2023-05-10T17:13:39;1.38;;;1.27;;
23588;SDS011;11972;48.078;11.876;2023-05-10T17:17:39;4.10;;;1.20;;
23588;SDS011;11972;48.078;11.876;2023-05-10T17:21:39;1.97;;;1.50;;
23588;SDS011;11972;48.078;11.876;2023-05-10T17:25:40;1.90;;;1.10;;
23588;SDS011;11972;48.078;11.876;2023-05-10T17:29:41;2.67;;;1.30;;
23588;SDS011;11972;48.078;11.876;2023-05-10T17:33:41;2.53;;;1.40;;
23588;SDS011;11972;48.078;11.876;2023-05-10T17:37:42;3.15;;;1.60;;
23588;SDS011;11972;48.078;11.876;2023-05-10T17:41:43;2.75;;;1.50;;
23588;SDS011;11972;48.078;11.876;2023-05-10T17:45:46;1.67;;;1.25;;
23588;SDS011;11972;48.078;11.876;2023-05-10T17:49:47;2.22;;;1.02;;
23588;SDS011;11972;48.078;11.876;2023-05-10T17:53:47;3.85;;;1.10;;
23588;SDS011;11972;48.078;11.876;2023-05-10T17:57:47;1.53;;;1.33;;
23588;SDS011;11972;48.078;11.876;2023-05-10T18:01:48;2.05;;;0.70;;
23588;SDS011;11972;48.078;11.876;2023-05-10T18:05:48;1.50;;;0.73;;
23588;SDS011;11972;48.078;11.876;2023-05-10T18:09:49;1.92;;;0.90;;
23588;SDS011;11972;48.078;11.876;2023-05-10T18:13:49;1.42;;;0.95;;
23588;SDS011;11972;48.078;11.876;2023-05-10T18:17:49;1.17;;;0.90;;
23588;SDS011;11972;48.078;11.876;2023-05-10T18:21:50;3.27;;;1.00;;
23588;SDS011;11972;48.078;11.876;2023-05-10T18:25:53;1.52;;;0.80;;
23588;SDS011;11972;48.078;11.876;2023-05-10T18:29:53;1.08;;;0.68;;
23588;SDS011;11972;48.078;11.876;2023-05-10T18:33:54;1.73;;;1.00;;
23588;SDS011;11972;48.078;11.876;2023-05-10T18:37:54;2.70;;;0.70;;
23588;SDS011;11972;48.078;11.876;2023-05-10T18:41:55;1.85;;;0.70;;
23588;SDS011;11972;48.078;11.876;2023-05-10T18:45:55;0.98;;;0.80;;
23588;SDS011;11972;48.078;11.876;2023-05-10T18:49:56;2.15;;;1.08;;
23588;SDS011;11972;48.078;11.876;2023-05-10T18:53:56;1.17;;;0.80;;
23588;SDS011;11972;48.078;11.876;2023-05-10T18:57:57;0.95;;;0.80;;
23588;SDS011;11972;48.078;11.876;2023-05-10T19:01:57;1.25;;;0.80;;
23588;SDS011;11972;48.078;11.876;2023-05-10T19:05:58;2.35;;;1.00;;
23588;SDS011;11972;48.078;11.876;2023-05-10T19:09:58;1.90;;;0.90;;
23588;SDS011;11972;48.078;11.876;2023-05-10T19:14:01;1.27;;;1.17;;
23588;SDS011;11972;48.078;11.876;2023-05-10T19:18:02;1.88;;;1.33;;
23588;SDS011;11972;48.078;11.876;2023-05-10T19:22:02;3.58;;;1.40;;
23588;SDS011;11972;48.078;11.876;2023-05-10T19:26:03;3.75;;;1.75;;
23588;SDS011;11972;48.078;11.876;2023-05-10T19:30:03;2.47;;;1.00;;
23588;SDS011;11972;48.078;11.876;2023-05-10T19:34:04;3.28;;;1.00;;
23588;SDS011;11972;48.078;11.876;2023-05-10T19:38:05;1.85;;;1.00;;
23588;SDS011;11972;48.078;11.876;2023-05-10T19:42:05;3.22;;;1.77;;
23588;SDS011;11972;48.078;11.876;2023-05-10T19:46:06;3.03;;;1.80;;
23588;SDS011;11972;48.078;11.876;2023-05-10T19:50:08;2.83;;;1.83;;
23588;SDS011;11972;48.078;11.876;2023-05-10T19:54:09;2.28;;;2.05;;
23588;SDS011;11972;48.078;11.876;2023-05-10T19:58:09;3.08;;;2.00;;
23588;SDS011;11972;48.078;11.876;2023-05-10T20:02:09;3.30;;;2.03;;
23588;SDS011;11972;48.078;11.876;2023-05-10T20:06:10;3.25;;;1.70;;
23588;SDS011;11972;48.078;11.876;2023-05-10T20:10:11;3.10;;;2.20;;
23588;SDS011;11972;48.078;11.876;2023-05-10T20:14:11;3.03;;;1.85;;
23588;SDS011;11972;48.078;11.876;2023-05-10T20:18:11;2.58;;;1.92;;
23588;SDS011;11972;48.078;11.876;2023-05-10T20:22:12;4.47;;;1.90;;
23588;SDS011;11972;48.078;11.876;2023-05-10T20:26:12;1.75;;;1.42;;
23588;SDS011;11972;48.078;11.876;2023-05-10T20:30:12;3.05;;;1.58;;
23588;SDS011;11972;48.078;11.876;2023-05-10T20:34:13;1.75;;;1.30;;
23588;SDS011;11972;48.078;11.876;2023-05-10T20:38:13;2.10;;;1.77;;
23588;SDS011;11972;48.078;11.876;2023-05-10T20:42:13;3.08;;;1.67;;
23588;SDS011;11972;48.078;11.876;2023-05-10T20:46:14;2.10;;;1.50;;
23588;SDS011;11972;48.078;11.876;2023-05-10T20:50:14;5.03;;;1.40;;
23588;SDS011;11972;48.078;11.876;2023-05-10T20:54:15;2.30;;;1.58;;
23588;SDS011;11972;48.078;11.876;2023-05-10T20:58:15;3.65;;;1.30;;
23588;SDS011;11972;48.078;11.876;2023-05-10T21:02:15;2.47;;;1.35;;
23588;SDS011;11972;48.078;11.876;2023-05-10T21:06:16;2.78;;;1.20;;
23588;SDS011;11972;48.078;11.876;2023-05-10T21:10:16;2.40;;;1.20;;
23588;SDS011;11972;48.078;11.876;2023-05-10T21:14:17;3.00;;;1.30;;
23588;SDS011;11972;48.078;11.876;2023-05-10T21:18:17;1.45;;;1.35;;
23588;SDS011;11972;48.078;11.876;2023-05-10T21:22:17;2.20;;;1.55;;
23588;SDS011;11972;48.078;11.876;2023-05-10T21:26:18;3.95;;;1.70;;
23588;SDS011;11972;48.078;11.876;2023-05-10T21:30:18;2.08;;;1.40;;
23588;SDS011;11972;48.078;11.876;2023-05-10T21:34:19;2.78;;;1.40;;
23588;SDS011;11972;48.078;11.876;2023-05-10T21:38:20;1.42;;;1.30;;
23588;SDS011;11972;48.078;11.876;2023-05-10T21:42:20;1.63;;;1.08;;
23588;SDS011;11972;48.078;11.876;2023-05-10T21:46:20;3.17;;;1.27;;
23588;SDS011;11972;48.078;11.876;2023-05-10T21:50:20;1.70;;;1.25;;
23588;SDS011;11972;48.078;11.876;2023-05-10T21:54:21;3.80;;;1.10;;
23588;SDS011;11972;48.078;11.876;2023-05-10T21:58:22;2.28;;;1.23;;
23588;SDS011;11972;48.078;11.876;2023-05-10T22:02:22;1.45;;;1.20;;
23588;SDS011;11972;48.078;11.876;2023-05-10T22:06:23;2.05;;;1.30;;
23588;SDS011;11972;48.078;11.876;2023-05-10T22:10:23;2.65;;;0.90;;
23588;SDS011;11972;48.078;11.876;2023-05-10T22:14:23;1.73;;;1.17;;
23588;SDS011;11972;48.078;11.876;2023-05-10T22:18:24;2.70;;;0.90;;
23588;SDS011;11972;48.078;11.876;2023-05-10T22:22:24;1.25;;;0.90;;
23588;SDS011;11972;48.078;11.876;2023-05-10T22:26:24;1.38;;;1.00;;
23588;SDS011;11972;48.078;11.876;2023-05-10T22:30:25;2.25;;;0.90;;
23588;SDS011;11972;48.078;11.876;2023-05-10T22:34:25;4.05;;;0.85;;
23588;SDS011;11972;48.078;11.876;2023-05-10T22:38:26;0.95;;;0.80;;
23588;SDS011;11972;48.078;11.876;2023-05-10T22:42:26;1.73;;;1.02;;
23588;SDS011;11972;48.078;11.876;2023-05-10T22:46:26;2.10;;;0.68;;
23588;SDS011;11972;48.078;11.876;2023-05-10T22:50:28;1.38;;;0.75;;
23588;SDS011;11972;48.078;11.876;2023-05-10T22:54:29;2.33;;;0.80;;
23588;SDS011;11972;48.078;11.876;2023-05-10T22:58:29;1.63;;;0.80;;
23588;SDS011;11972;48.078;11.876;2023-05-10T23:02:30;2.20;;;1.10;;
23588;SDS011;11972;48.078;11.876;2023-05-10T23:06:31;1.30;;;0.88;;
23588;SDS011;11972;48.078;11.876;2023-05-10T23:10:32;0.95;;;0.85;;
23588;SDS011;11972;48.078;11.876;2023-05-10T23:14:32;2.20;;;0.77;;
23588;SDS011;11972;48.078;11.876;2023-05-10T23:18:32;0.80;;;0.77;;
23588;SDS011;11972;48.078;11.876;2023-05-10T23:22:33;1.05;;;0.70;;
23588;SDS011;11972;48.078;11.876;2023-05-10T23:26:34;2.63;;;0.77;;
23588;SDS011;11972;48.078;11.876;2023-05-10T23:30:35;2.10;;;0.77;;
23588;SDS011;11972;48.078;11.876;2023-05-10T23:34:35;1.80;;;0.80;;
23588;SDS011;11972;48.078;11.876;2023-05-10T23:38:36;1.65;;;0.70;;
23588;SDS011;11972;48.078;11.876;2023-05-10T23:42:37;1.55;;;0.57;;
23588;SDS011;11972;48.078;11.876;2023-05-10T23:46:37;2.03;;;0.70;;
23588;SDS011;11972;48.078;11.876;2023-05-10T23:50:37;0.95;;;0.68;;
23588;SDS011;11972;48.078;11.876;2023-05-10T23:54:43;1.52;;;0.70;;
23588;SDS011;11972;48.078;11.876;2023-05-10T23:58:43;1.38;;;0.82;;
